createdAt,value
2022-12-03T00:01:39.837Z,24.00
2022-12-03T00:06:45.625Z,19.65
2022-12-03T00:11:49.874Z,23.88
2022-12-03T00:16:53.937Z,27.95
2022-12-03T00:22:02.488Z,23.95
2022-12-03T00:27:06.513Z,25.17
2022-12-03T00:32:10.572Z,24.15
2022-12-03T00:37:17.046Z,25.90
2022-12-03T00:42:21.142Z,22.40
2022-12-03T00:47:25.280Z,24.08
2022-12-03T00:52:31.889Z,27.02
2022-12-03T00:57:36.498Z,27.88
2022-12-03T01:02:40.676Z,27.98
2022-12-03T01:07:46.329Z,28.45
2022-12-03T01:12:50.415Z,30.42
2022-12-03T01:17:55.164Z,30.13
2022-12-03T01:23:02.203Z,26.17
2022-12-03T01:28:06.277Z,28.50
2022-12-03T01:33:10.745Z,22.60
2022-12-03T01:38:16.716Z,17.92
2022-12-03T01:43:20.731Z,19.33
2022-12-03T01:48:25.068Z,17.92
2022-12-03T01:53:30.577Z,21.50
2022-12-03T01:58:34.598Z,17.90
2022-12-03T02:03:39.041Z,15.65
2022-12-03T02:08:44.837Z,14.63
2022-12-03T02:13:51.240Z,16.65
2022-12-03T02:18:55.622Z,21.10
2022-12-03T02:24:12.650Z,17.42
2022-12-03T02:29:18.173Z,26.48
2022-12-03T02:34:39.052Z,17.20
2022-12-03T02:39:48.778Z,17.55
2022-12-03T02:44:54.946Z,15.55
2022-12-03T02:50:00.852Z,21.13
2022-12-03T02:55:06.800Z,18.52
2022-12-03T03:00:14.356Z,17.15
2022-12-03T03:05:21.708Z,15.65
2022-12-03T03:10:26.719Z,15.15
2022-12-03T03:15:32.368Z,15.52
2022-12-03T03:20:36.736Z,15.32
2022-12-03T03:25:44.079Z,15.98
2022-12-03T03:30:49.860Z,14.05
2022-12-03T03:35:55.007Z,15.02
2022-12-03T03:41:01.052Z,12.70
2022-12-03T03:46:08.308Z,10.23
2022-12-03T03:51:14.004Z,7.82
2022-12-03T03:56:20.832Z,12.00
2022-12-03T04:01:26.606Z,12.40
2022-12-03T04:06:30.640Z,15.52
2022-12-03T04:11:51.711Z,15.13
2022-12-03T04:16:57.922Z,12.30
2022-12-03T04:22:34.054Z,12.95
2022-12-03T04:27:55.608Z,13.18
2022-12-03T04:33:18.799Z,18.88
2022-12-03T04:38:23.966Z,13.65
2022-12-03T04:43:28.399Z,11.18
2022-12-03T04:48:33.784Z,12.00
2022-12-03T04:53:43.244Z,16.02
2022-12-03T04:58:49.987Z,9.80
2022-12-03T05:03:55.325Z,11.27
2022-12-03T05:08:59.428Z,11.95
2022-12-03T05:14:10.928Z,8.50
2022-12-03T05:19:16.307Z,9.02
2022-12-03T05:24:20.347Z,14.20
2022-12-03T05:29:24.388Z,18.27
2022-12-03T05:34:29.746Z,15.43
2022-12-03T05:39:35.162Z,23.77
2022-12-03T05:44:39.508Z,29.52
2022-12-03T05:49:44.894Z,24.50
2022-12-03T05:54:48.872Z,19.02
2022-12-03T05:59:53.841Z,14.13
2022-12-03T06:04:59.325Z,14.52
2022-12-03T06:10:03.528Z,19.80
2022-12-03T06:15:09.258Z,17.73
2022-12-03T06:20:17.424Z,16.45
2022-12-03T06:25:22.950Z,20.33
2022-12-03T06:30:26.889Z,19.88
2022-12-03T06:35:32.486Z,9.13
2022-12-03T06:40:38.329Z,6.38
2022-12-03T06:45:47.686Z,9.38
2022-12-03T06:50:55.894Z,9.83
2022-12-03T06:56:02.273Z,13.10
2022-12-03T07:01:06.700Z,12.30
2022-12-03T07:06:12.716Z,10.55
2022-12-03T07:11:30.839Z,17.67
2022-12-03T07:16:37.936Z,18.25
2022-12-03T07:21:45.425Z,21.77
2022-12-03T07:26:49.471Z,17.27
2022-12-03T07:31:53.855Z,32.13
2022-12-03T07:36:59.910Z,16.75
2022-12-03T07:42:04.060Z,14.77
2022-12-03T07:47:08.154Z,13.90
2022-12-03T07:52:15.952Z,22.60
2022-12-03T07:57:20.215Z,13.05
2022-12-03T08:02:24.302Z,12.77
2022-12-03T08:07:30.029Z,15.18
2022-12-03T08:12:43.710Z,9.55
2022-12-03T08:17:53.941Z,9.98
2022-12-03T08:23:00.039Z,16.35
2022-12-03T08:28:13.127Z,19.90
2022-12-03T08:33:21.531Z,17.10
2022-12-03T08:38:26.992Z,7.57
2022-12-03T08:43:41.996Z,15.32
2022-12-03T08:48:49.443Z,26.77
2022-12-03T08:54:02.360Z,20.33
2022-12-03T08:59:25.155Z,20.17
2022-12-03T09:04:37.626Z,14.00
2022-12-03T09:09:43.583Z,14.57
2022-12-03T09:14:47.574Z,9.07
2022-12-03T09:19:53.405Z,13.27
2022-12-03T09:24:58.862Z,14.43
2022-12-03T09:30:02.827Z,15.02
2022-12-03T09:35:08.967Z,13.90
2022-12-03T09:40:15.854Z,13.20
2022-12-03T09:45:27.327Z,14.13
2022-12-03T09:50:33.446Z,13.43
2022-12-03T09:55:39.146Z,19.13
2022-12-03T10:00:45.170Z,14.68
2022-12-03T10:05:51.549Z,19.38
2022-12-03T10:10:57.895Z,15.98
2022-12-03T10:16:02.683Z,15.38
2022-12-03T10:21:18.177Z,21.83
2022-12-03T10:26:43.102Z,12.10
2022-12-03T10:31:47.784Z,11.23
2022-12-03T10:37:10.327Z,11.07
2022-12-03T10:42:17.080Z,16.10
2022-12-03T10:47:25.906Z,15.85
2022-12-03T10:52:30.423Z,15.77
2022-12-03T10:57:35.853Z,15.32
2022-12-03T11:02:39.983Z,19.13
2022-12-03T11:07:45.153Z,18.80
2022-12-03T11:13:24.445Z,16.80
2022-12-03T11:19:04.183Z,16.27
2022-12-03T11:24:27.645Z,11.38
2022-12-03T11:30:01.550Z,12.85
2022-12-03T11:35:13.359Z,17.38
2022-12-03T11:40:39.560Z,12.65
2022-12-03T11:45:45.100Z,9.73
2022-12-03T11:50:55.066Z,9.32
2022-12-03T11:56:09.069Z,9.25
2022-12-03T12:01:14.295Z,26.60
2022-12-03T12:06:21.330Z,15.65
2022-12-03T12:11:29.768Z,14.93
2022-12-03T12:16:50.556Z,9.52
2022-12-03T12:21:58.676Z,9.95
2022-12-03T12:27:05.679Z,13.48
2022-12-03T12:32:16.076Z,10.25
2022-12-03T12:37:24.341Z,13.50
2022-12-03T12:42:34.469Z,11.65
2022-12-03T12:47:38.892Z,7.35
2022-12-03T12:52:51.123Z,10.90
2022-12-03T12:57:57.784Z,37.05
2022-12-03T13:03:04.377Z,37.25
2022-12-03T13:08:22.258Z,21.80
2022-12-03T13:13:31.068Z,12.25
2022-12-03T13:18:41.451Z,14.93
2022-12-03T13:23:46.843Z,21.55
2022-12-03T13:28:51.408Z,15.88
2022-12-03T13:33:57.243Z,20.45
2022-12-03T13:39:11.331Z,16.48
2022-12-03T13:44:19.486Z,50.75
2022-12-03T13:49:25.590Z,52.90
2022-12-03T13:54:37.375Z,58.45
2022-12-03T13:59:41.520Z,31.15
2022-12-03T14:04:46.345Z,53.40
2022-12-03T14:09:52.088Z,36.15
2022-12-03T14:14:57.385Z,21.15
2022-12-03T14:20:01.910Z,23.95
2022-12-03T14:25:08.612Z,42.47
2022-12-03T14:30:13.777Z,68.07
2022-12-03T14:35:17.699Z,29.67
2022-12-03T14:40:26.440Z,39.17
2022-12-03T14:45:31.299Z,46.30
2022-12-03T14:50:35.181Z,25.10
2022-12-03T14:55:40.544Z,21.05
2022-12-03T15:00:44.762Z,33.33
2022-12-03T15:05:49.827Z,30.42
2022-12-03T15:10:55.933Z,38.03
2022-12-03T15:15:59.977Z,35.28
2022-12-03T15:21:06.545Z,29.30
2022-12-03T15:26:12.084Z,31.55
2022-12-03T15:31:16.035Z,27.08
2022-12-03T15:36:19.954Z,28.67
2022-12-03T15:41:29.210Z,24.65
2022-12-03T15:46:33.133Z,38.05
2022-12-03T15:51:37.254Z,35.92
2022-12-03T15:56:42.541Z,21.38
2022-12-03T16:01:47.686Z,23.90
2022-12-03T16:06:51.856Z,18.35
2022-12-03T16:11:57.694Z,15.98
2022-12-03T16:17:02.402Z,17.77
2022-12-03T16:22:07.326Z,18.52
2022-12-03T16:27:12.659Z,17.08
2022-12-03T16:32:16.764Z,33.88
2022-12-03T16:37:20.965Z,27.27
2022-12-03T16:42:27.339Z,27.15
2022-12-03T16:47:34.419Z,35.30
2022-12-03T16:52:38.641Z,34.13
2022-12-03T16:57:44.122Z,38.40
2022-12-03T17:02:48.046Z,52.30
2022-12-03T17:07:51.996Z,80.88
2022-12-03T17:13:12.740Z,40.80
2022-12-03T17:18:18.329Z,24.52
2022-12-03T17:23:22.931Z,26.60
2022-12-03T17:28:28.616Z,45.42
2022-12-03T17:33:32.486Z,24.25
2022-12-03T17:38:39.486Z,47.42
2022-12-03T17:43:45.186Z,45.30
2022-12-03T17:48:50.364Z,22.73
2022-12-03T17:53:54.751Z,26.48
2022-12-03T17:59:00.176Z,24.77
2022-12-03T18:04:07.876Z,29.83
2022-12-03T18:09:11.970Z,23.25
2022-12-03T18:14:20.317Z,17.88
2022-12-03T18:19:24.313Z,38.97
2022-12-03T18:24:31.132Z,31.98
2022-12-03T18:29:36.602Z,29.83
2022-12-03T18:34:42.477Z,32.75
2022-12-03T18:39:48.285Z,23.17
2022-12-03T18:44:57.244Z,24.73
2022-12-03T18:50:02.076Z,29.98
2022-12-03T18:55:09.409Z,33.25
2022-12-03T19:00:17.528Z,29.08
2022-12-03T19:05:21.535Z,33.85
2022-12-03T19:10:27.376Z,26.92
2022-12-03T19:15:32.661Z,27.70
2022-12-03T19:20:38.910Z,29.52
2022-12-03T19:25:44.116Z,28.25
2022-12-03T19:30:57.172Z,35.67
2022-12-03T19:36:02.428Z,35.30
2022-12-03T19:41:08.460Z,35.03
2022-12-03T19:46:13.945Z,29.88
2022-12-03T19:51:35.398Z,47.97
2022-12-03T19:56:41.774Z,45.85
2022-12-03T20:01:47.128Z,181.32
2022-12-03T20:06:51.097Z,75.10
2022-12-03T20:11:56.370Z,55.80
2022-12-03T20:17:01.625Z,51.20
2022-12-03T20:22:08.097Z,48.20
2022-12-03T20:27:15.416Z,49.95
2022-12-03T20:32:27.331Z,41.70
2022-12-03T20:37:32.610Z,47.95
2022-12-03T20:42:36.524Z,48.38
2022-12-03T20:47:42.558Z,53.63
2022-12-03T20:53:09.468Z,38.33
2022-12-03T20:58:11.126Z,48.53
2022-12-03T21:03:16.363Z,54.22
2022-12-03T21:08:39.723Z,59.55
2022-12-03T21:13:44.529Z,45.85
2022-12-03T21:18:49.932Z,53.38
2022-12-03T21:23:56.159Z,44.72
2022-12-03T21:29:01.143Z,67.03
2022-12-03T21:34:09.069Z,72.80
2022-12-03T21:39:13.075Z,73.05
2022-12-03T21:44:17.319Z,114.15
2022-12-03T21:49:23.377Z,65.85
2022-12-03T21:54:27.323Z,57.30
2022-12-03T21:59:31.326Z,45.40
2022-12-03T22:04:36.749Z,44.72
2022-12-03T22:09:40.718Z,30.27
2022-12-03T22:14:44.783Z,41.35
2022-12-03T22:19:50.477Z,36.70
2022-12-03T22:24:54.475Z,27.90
2022-12-03T22:29:58.605Z,22.50
2022-12-03T22:35:04.219Z,30.27
2022-12-03T22:40:09.238Z,24.08
2022-12-03T22:45:13.370Z,30.65
2022-12-03T22:50:19.267Z,32.33
2022-12-03T22:55:23.493Z,28.17
2022-12-03T23:00:31.732Z,26.58
2022-12-03T23:05:38.687Z,25.55
2022-12-03T23:10:47.746Z,30.80
2022-12-03T23:15:53.878Z,23.48
2022-12-03T23:20:59.494Z,18.98
2022-12-03T23:26:05.914Z,18.00
2022-12-03T23:31:17.512Z,20.58
2022-12-03T23:36:23.953Z,15.77
2022-12-03T23:41:28.631Z,15.23
2022-12-03T23:46:32.950Z,14.52
2022-12-03T23:51:38.404Z,13.35
2022-12-03T23:56:42.350Z,12.65
